Time;durP1;ratioP1;P1;durP2;ratioP2;P2;SDS_P1;SDS_P2;PMS_P1;PMS_P2;Temp;Humidity;BMP_temperature;BMP_pressure;BME280_temperature;BME280_humidity;BME280_pressure;Samples;Min_cycle;Max_cycle;Signal;HPM_P1;HPM_P2
2024/02/10 00:01:00;;;;;;;2.45;0.80;;;8.80;99.90;;;;;;4925566;29;20685;-79
2024/02/10 00:03:28;;;;;;;1.73;0.93;;;8.70;99.90;;;;;;4930779;28;20083;-79
2024/02/10 00:05:55;;;;;;;2.80;0.80;;;8.60;99.90;;;;;;4928335;29;20052;-79
2024/02/10 00:08:22;;;;;;;1.52;0.70;;;8.50;99.90;;;;;;4929527;29;20035;-78
2024/02/10 00:10:48;;;;;;;1.63;0.75;;;8.50;99.90;;;;;;4928838;29;20038;-78
2024/02/10 00:13:15;;;;;;;2.22;0.75;;;8.50;99.90;;;;;;4931071;29;20401;-78
2024/02/10 00:15:41;;;;;;;2.88;0.82;;;8.50;99.90;;;;;;4928679;28;26268;-77
2024/02/10 00:18:10;;;;;;;3.05;0.80;;;8.50;99.90;;;;;;4932716;29;20114;-78
2024/02/10 00:20:36;;;;;;;3.63;1.00;;;8.50;99.90;;;;;;4935217;28;20067;-78
2024/02/10 00:23:04;;;;;;;2.05;0.90;;;8.60;99.90;;;;;;4932181;28;20087;-78
2024/02/10 00:25:31;;;;;;;2.08;0.77;;;8.60;99.90;;;;;;4934299;29;20470;-77
2024/02/10 00:28:00;;;;;;;2.75;0.73;;;8.50;99.90;;;;;;4934453;29;20043;-78
2024/02/10 00:30:27;;;;;;;2.38;0.93;;;8.60;99.90;;;;;;4932194;28;20050;-78
2024/02/10 00:32:53;;;;;;;1.35;0.63;;;8.50;99.90;;;;;;4935661;29;20737;-78
2024/02/10 00:35:22;;;;;;;1.20;0.52;;;8.50;99.90;;;;;;4933407;29;20441;-78
2024/02/10 00:37:49;;;;;;;1.35;0.52;;;8.50;99.90;;;;;;4934212;28;20068;-78
2024/02/10 00:40:15;;;;;;;1.30;0.55;;;8.50;99.90;;;;;;4935511;29;20906;-78
2024/02/10 00:42:40;;;;;;;0.98;0.47;;;8.50;99.90;;;;;;4934164;28;20066;-78
2024/02/10 00:45:07;;;;;;;1.27;0.68;;;8.50;99.90;;;;;;4938422;29;20079;-78
2024/02/10 00:47:34;;;;;;;1.60;0.70;;;8.40;99.90;;;;;;4933821;29;20046;-78
2024/02/10 00:50:01;;;;;;;2.67;0.80;;;8.40;99.90;;;;;;4936096;29;20047;-78
2024/02/10 00:52:27;;;;;;;1.58;0.65;;;8.40;99.90;;;;;;4933760;29;20046;-78
2024/02/10 00:54:53;;;;;;;2.40;0.50;;;8.30;99.90;;;;;;4935747;29;20043;-78
2024/02/10 00:57:19;;;;;;;3.22;0.60;;;8.30;99.90;;;;;;4937707;29;20063;-78
2024/02/10 00:59:45;;;;;;;1.45;0.45;;;8.30;99.90;;;;;;4937653;29;21360;-78
2024/02/10 01:02:17;;;;;;;1.67;0.65;;;8.40;99.90;;;;;;4937684;28;20031;-78
2024/02/10 01:04:49;;;;;;;1.50;0.30;;;8.50;99.90;;;;;;4939010;29;20425;-78
2024/02/10 01:07:16;;;;;;;1.17;0.52;;;8.50;99.90;;;;;;4936088;29;20726;-78
2024/02/10 01:09:48;;;;;;;1.50;0.90;;;8.50;99.90;;;;;;4936766;28;20042;-78
2024/02/10 01:12:15;;;;;;;3.70;0.60;;;8.60;99.90;;;;;;4936779;28;20493;-78
2024/02/10 01:14:40;;;;;;;2.13;0.60;;;8.50;99.90;;;;;;4936954;29;20036;-78
2024/02/10 01:17:10;;;;;;;1.75;0.60;;;8.50;99.90;;;;;;4936386;28;20082;-77
2024/02/10 01:19:49;;;;;;;2.45;1.00;;;8.50;99.90;;;;;;4936862;29;20043;-78
2024/02/10 01:22:17;;;;;;;1.60;0.60;;;8.50;99.90;;;;;;4937036;29;20078;-78
2024/02/10 01:24:46;;;;;;;4.30;0.90;;;8.50;99.90;;;;;;4938539;29;20031;-77
2024/02/10 01:27:18;;;;;;;2.80;0.98;;;8.50;99.90;;;;;;4936931;29;20031;-78
2024/02/10 01:29:50;;;;;;;2.08;0.88;;;8.50;99.90;;;;;;4931516;29;20102;-78
2024/02/10 01:32:19;;;;;;;2.67;1.45;;;8.50;99.90;;;;;;4936336;29;20031;-78
2024/02/10 01:34:47;;;;;;;3.67;2.00;;;8.50;99.90;;;;;;4936303;28;20051;-78
2024/02/10 01:37:17;;;;;;;2.15;1.00;;;8.50;99.90;;;;;;4935574;29;20039;-78
2024/02/10 01:39:46;;;;;;;2.42;1.05;;;8.50;99.90;;;;;;4933870;29;20235;-78
2024/02/10 01:42:17;;;;;;;2.00;0.90;;;8.50;99.90;;;;;;4937041;29;20035;-78
2024/02/10 01:44:44;;;;;;;2.97;1.13;;;8.50;99.90;;;;;;4937817;29;20397;-78
2024/02/10 01:47:14;;;;;;;2.75;1.20;;;8.50;99.90;;;;;;4934320;28;20047;-78
2024/02/10 01:49:41;;;;;;;2.50;1.30;;;8.40;99.90;;;;;;4933024;28;20500;-78
2024/02/10 01:52:08;;;;;;;2.97;1.60;;;8.30;99.90;;;;;;4936831;28;20162;-78
2024/02/10 01:54:36;;;;;;;3.22;1.30;;;8.30;99.90;;;;;;4936555;29;20051;-78
2024/02/10 01:57:05;;;;;;;3.90;1.40;;;8.30;99.90;;;;;;4936820;28;20043;-78
2024/02/10 01:59:37;;;;;;;1.27;0.73;;;8.30;99.90;;;;;;4937807;29;20122;-78
2024/02/10 02:02:03;;;;;;;0.98;0.35;;;8.20;99.90;;;;;;4935105;29;20408;-78
2024/02/10 02:04:31;;;;;;;0.70;0.30;;;8.10;99.90;;;;;;4934841;29;20061;-78
2024/02/10 02:07:00;;;;;;;0.60;0.30;;;8.20;99.90;;;;;;4935952;28;20539;-78
2024/02/10 02:09:27;;;;;;;0.52;0.32;;;8.40;99.90;;;;;;4936266;29;20037;-78
2024/02/10 02:11:53;;;;;;;0.40;0.22;;;8.40;99.90;;;;;;4934772;29;20039;-78
2024/02/10 02:14:18;;;;;;;2.17;0.50;;;8.40;99.90;;;;;;4933960;29;20058;-78
2024/02/10 02:16:48;;;;;;;3.47;0.80;;;8.40;99.90;;;;;;4936349;29;20558;-78
2024/02/10 02:19:16;;;;;;;1.23;0.57;;;8.40;99.90;;;;;;4935594;29;20028;-78
2024/02/10 02:21:42;;;;;;;0.85;0.47;;;8.40;99.90;;;;;;4935810;29;20066;-78
2024/02/10 02:24:09;;;;;;;2.30;0.70;;;8.40;99.90;;;;;;4936320;29;20042;-78
2024/02/10 02:26:34;;;;;;;1.25;0.45;;;8.30;99.90;;;;;;4935950;29;20140;-78
2024/02/10 02:29:00;;;;;;;1.30;0.88;;;8.40;99.90;;;;;;4936124;28;20646;-78
2024/02/10 02:31:26;;;;;;;1.27;0.50;;;8.50;99.90;;;;;;4935690;29;20043;-78
2024/02/10 02:33:53;;;;;;;1.55;0.55;;;8.50;99.90;;;;;;4934937;29;20082;-78
2024/02/10 02:36:19;;;;;;;3.25;0.60;;;8.50;99.90;;;;;;4934896;29;20118;-78
2024/02/10 02:38:45;;;;;;;2.15;0.35;;;8.40;99.90;;;;;;4936678;29;20683;-78
2024/02/10 02:41:11;;;;;;;1.10;0.38;;;8.30;99.90;;;;;;4935149;28;20437;-78
2024/02/10 02:43:37;;;;;;;0.88;0.30;;;8.40;99.90;;;;;;4933535;29;20027;-78
2024/02/10 02:46:03;;;;;;;1.75;0.43;;;8.40;99.90;;;;;;4936599;28;20119;-78
2024/02/10 02:48:29;;;;;;;1.58;0.50;;;8.30;99.90;;;;;;4935552;29;20064;-78
2024/02/10 02:50:55;;;;;;;0.60;0.30;;;8.20;99.90;;;;;;4935026;28;20027;-78
2024/02/10 02:53:23;;;;;;;1.15;0.30;;;8.20;99.90;;;;;;4936305;29;20047;-78
2024/02/10 02:55:49;;;;;;;3.38;0.68;;;8.20;99.90;;;;;;4935818;29;20026;-78
2024/02/10 02:58:14;;;;;;;1.20;0.52;;;8.20;99.90;;;;;;4934420;29;20035;-78
2024/02/10 03:00:40;;;;;;;2.45;0.43;;;8.20;99.90;;;;;;4936135;29;20035;-78
2024/02/10 03:03:06;;;;;;;1.40;0.45;;;8.20;99.90;;;;;;4934415;28;20510;-78
2024/02/10 03:05:32;;;;;;;3.30;1.20;;;8.20;99.90;;;;;;4933263;28;20046;-78
2024/02/10 03:07:58;;;;;;;0.65;0.40;;;8.20;99.90;;;;;;4936522;29;20039;-78
2024/02/10 03:10:24;;;;;;;0.82;0.45;;;8.30;99.90;;;;;;4934990;28;20155;-78
2024/02/10 03:12:50;;;;;;;1.65;0.65;;;8.20;99.90;;;;;;4933904;29;20143;-78
2024/02/10 03:15:16;;;;;;;1.13;0.40;;;8.10;99.90;;;;;;4936357;29;20039;-78
2024/02/10 03:17:46;;;;;;;0.60;0.40;;;8.10;99.90;;;;;;4932687;29;20168;-78
2024/02/10 03:20:13;;;;;;;2.15;0.63;;;8.20;99.90;;;;;;4934343;29;20107;-78
2024/02/10 03:22:39;;;;;;;1.65;0.38;;;8.20;99.90;;;;;;4935190;29;20098;-78
2024/02/10 03:25:05;;;;;;;0.55;0.30;;;8.20;99.90;;;;;;4935188;28;20397;-78
2024/02/10 03:27:31;;;;;;;0.85;0.50;;;8.20;99.90;;;;;;4933850;29;20094;-78
2024/02/10 03:29:56;;;;;;;2.30;0.93;;;8.20;99.90;;;;;;4934597;28;20047;-78
2024/02/10 03:32:22;;;;;;;1.00;0.40;;;8.10;99.90;;;;;;4935960;28;20376;-78
2024/02/10 03:34:48;;;;;;;0.82;0.30;;;8.10;99.90;;;;;;4934619;29;20501;-78
2024/02/10 03:37:15;;;;;;;3.15;0.50;;;8.20;99.90;;;;;;4934919;29;20504;-78
2024/02/10 03:39:41;;;;;;;0.98;0.28;;;8.30;99.90;;;;;;4935184;29;20034;-78
2024/02/10 03:42:07;;;;;;;1.02;0.40;;;8.30;99.90;;;;;;4934094;29;20035;-78
2024/02/10 03:44:34;;;;;;;0.88;0.30;;;8.20;99.90;;;;;;4934554;29;20031;-78
2024/02/10 03:47:00;;;;;;;2.20;0.63;;;8.20;99.90;;;;;;4936580;29;20027;-78
2024/02/10 03:49:30;;;;;;;2.05;0.60;;;8.30;99.90;;;;;;4934740;29;20031;-78
2024/02/10 03:51:56;;;;;;;1.52;0.43;;;8.40;99.90;;;;;;4934364;28;21458;-78
2024/02/10 03:54:22;;;;;;;1.30;0.30;;;8.40;99.90;;;;;;4936095;28;20695;-78
2024/02/10 03:56:50;;;;;;;1.60;0.77;;;8.30;99.90;;;;;;4935561;29;20039;-78
2024/02/10 03:59:16;;;;;;;2.08;0.45;;;8.30;99.90;;;;;;4933515;29;20568;-78
2024/02/10 04:01:45;;;;;;;1.38;0.68;;;8.30;99.90;;;;;;4934561;28;20031;-78
2024/02/10 04:04:12;;;;;;;1.02;0.40;;;8.30;99.90;;;;;;4928903;29;20063;-79
2024/02/10 04:06:39;;;;;;;1.90;0.40;;;8.20;99.90;;;;;;4929940;28;20560;-77
2024/02/10 04:09:07;;;;;;;5.07;0.82;;;8.20;99.90;;;;;;4929897;28;20981;-77
2024/02/10 04:11:33;;;;;;;2.55;1.08;;;8.20;99.90;;;;;;4931276;28;20570;-77
2024/02/10 04:13:59;;;;;;;3.83;1.80;;;8.20;99.90;;;;;;4929668;28;20062;-77
2024/02/10 04:16:26;;;;;;;3.67;1.65;;;8.30;99.90;;;;;;4931565;28;20039;-77
2024/02/10 04:18:53;;;;;;;5.88;1.98;;;8.30;99.90;;;;;;4930454;29;21410;-77
2024/02/10 04:21:20;;;;;;;4.13;1.60;;;8.30;99.90;;;;;;4931128;28;20035;-77
2024/02/10 04:23:46;;;;;;;2.50;0.93;;;8.30;99.90;;;;;;4933946;29;20070;-77
2024/02/10 04:26:11;;;;;;;5.95;0.90;;;8.30;99.90;;;;;;4934193;28;20043;-77
2024/02/10 04:28:37;;;;;;;1.83;0.88;;;8.30;99.90;;;;;;4934183;29;20071;-77
2024/02/10 04:31:04;;;;;;;2.85;0.93;;;8.30;99.90;;;;;;4934467;29;20603;-77
2024/02/10 04:33:29;;;;;;;2.75;1.30;;;8.30;99.90;;;;;;4935289;29;20062;-77
2024/02/10 04:35:55;;;;;;;3.33;1.00;;;8.30;99.90;;;;;;4934196;29;20648;-77
2024/02/10 04:38:24;;;;;;;2.55;0.90;;;8.40;99.90;;;;;;4934606;29;20038;-77
2024/02/10 04:40:51;;;;;;;2.97;1.20;;;8.40;99.90;;;;;;4932319;29;20042;-77
2024/02/10 04:43:20;;;;;;;1.80;0.75;;;8.40;99.90;;;;;;4932092;28;20039;-77
2024/02/10 04:45:48;;;;;;;3.40;1.00;;;8.40;99.90;;;;;;4932261;29;20043;-77
2024/02/10 04:48:19;;;;;;;3.92;1.38;;;8.10;99.90;;;;;;4934351;29;20063;-77
2024/02/10 04:50:45;;;;;;;3.33;1.35;;;8.20;99.90;;;;;;4931416;29;20071;-77
2024/02/10 04:53:11;;;;;;;2.65;1.00;;;8.20;99.90;;;;;;4926552;29;20612;-77
2024/02/10 04:55:41;;;;;;;2.67;1.52;;;8.20;99.90;;;;;;4928747;29;20447;-77
2024/02/10 04:58:07;;;;;;;6.55;1.20;;;8.20;99.90;;;;;;4924624;29;20028;-77
2024/02/10 05:00:33;;;;;;;1.80;0.95;;;8.20;99.90;;;;;;4930512;28;20038;-77
2024/02/10 05:03:02;;;;;;;2.45;1.05;;;8.20;99.90;;;;;;4929944;29;20051;-77
2024/02/10 05:05:28;;;;;;;2.58;1.20;;;8.20;99.90;;;;;;4930745;28;20027;-77
2024/02/10 05:07:56;;;;;;;3.15;1.50;;;8.20;99.90;;;;;;4932372;29;20027;-77
2024/02/10 05:10:23;;;;;;;3.22;1.20;;;8.10;99.90;;;;;;4924491;29;20466;-77
2024/02/10 05:12:50;;;;;;;3.08;1.55;;;8.20;99.90;;;;;;4929504;28;20421;-78
2024/02/10 05:15:21;;;;;;;2.60;1.17;;;8.20;99.90;;;;;;4931462;28;20063;-77
2024/02/10 05:17:51;;;;;;;2.00;1.23;;;8.10;99.90;;;;;;4930306;28;20302;-77
2024/02/10 05:20:21;;;;;;;4.68;1.50;;;8.10;99.90;;;;;;4930051;29;20019;-78
2024/02/10 05:22:56;;;;;;;4.80;1.23;;;8.10;99.90;;;;;;4929876;29;20235;-77
2024/02/10 05:25:27;;;;;;;2.63;1.38;;;8.10;99.90;;;;;;4931881;29;20035;-77
2024/02/10 05:27:54;;;;;;;2.90;1.27;;;8.10;99.90;;;;;;4931984;28;20054;-77
2024/02/10 05:30:21;;;;;;;2.20;1.10;;;8.20;99.90;;;;;;4931567;29;20617;-77
2024/02/10 05:32:49;;;;;;;3.05;1.23;;;8.20;99.90;;;;;;4932291;28;20060;-77
2024/02/10 05:35:18;;;;;;;2.75;1.45;;;8.10;99.90;;;;;;4931544;28;20047;-78
2024/02/10 05:37:53;;;;;;;2.70;1.35;;;8.10;99.90;;;;;;4930524;28;20039;-77
2024/02/10 05:40:19;;;;;;;2.70;1.20;;;8.00;99.90;;;;;;4929067;29;20042;-77
2024/02/10 05:42:46;;;;;;;3.33;1.60;;;8.00;99.90;;;;;;4926920;29;20035;-77
2024/02/10 05:45:17;;;;;;;2.40;1.20;;;8.00;99.90;;;;;;4930441;28;20035;-78
2024/02/10 05:47:44;;;;;;;3.08;1.52;;;8.10;99.90;;;;;;4932396;29;20027;-78
2024/02/10 05:50:15;;;;;;;2.33;1.20;;;8.10;99.90;;;;;;4931696;28;20039;-78
2024/02/10 05:52:44;;;;;;;2.10;1.10;;;8.10;99.90;;;;;;4930618;29;20054;-78
2024/02/10 05:55:23;;;;;;;2.38;1.05;;;8.10;99.90;;;;;;4929413;29;20035;-78
2024/02/10 05:57:48;;;;;;;2.38;1.23;;;8.10;99.90;;;;;;4929292;29;20050;-78
2024/02/10 06:00:15;;;;;;;2.85;1.38;;;8.00;99.90;;;;;;4928033;28;20031;-78
2024/02/10 06:02:44;;;;;;;5.63;1.92;;;8.10;99.90;;;;;;4930554;29;20054;-78
2024/02/10 06:05:12;;;;;;;3.90;1.63;;;8.10;99.90;;;;;;4930591;29;20039;-78
2024/02/10 06:07:39;;;;;;;5.22;2.22;;;8.10;99.90;;;;;;4929662;29;20083;-78
2024/02/10 06:10:15;;;;;;;6.60;2.33;;;8.00;99.90;;;;;;4932034;29;20442;-78
2024/02/10 06:12:45;;;;;;;4.43;2.47;;;8.10;99.90;;;;;;4931003;29;20134;-78
2024/02/10 06:15:12;;;;;;;4.53;2.40;;;8.00;99.90;;;;;;4932679;28;20494;-79
2024/02/10 06:17:42;;;;;;;3.40;2.00;;;8.00;99.90;;;;;;4930787;28;20036;-78
2024/02/10 06:20:14;;;;;;;3.72;1.73;;;8.00;99.90;;;;;;4933771;29;20038;-78
2024/02/10 06:22:50;;;;;;;3.25;1.60;;;8.00;99.90;;;;;;4933753;29;20126;-78
2024/02/10 06:25:22;;;;;;;2.90;1.73;;;8.10;99.90;;;;;;4932664;29;20094;-78
2024/02/10 06:27:52;;;;;;;2.92;1.40;;;8.10;99.90;;;;;;4933185;28;20405;-78
2024/02/10 06:30:18;;;;;;;3.47;1.45;;;8.20;99.90;;;;;;4931657;29;20376;-78
2024/02/10 06:32:44;;;;;;;3.42;1.63;;;8.20;99.90;;;;;;4933079;28;20110;-78
2024/02/10 06:35:12;;;;;;;3.10;1.77;;;8.20;99.90;;;;;;4932320;28;20039;-78
2024/02/10 06:37:39;;;;;;;3.22;1.73;;;8.30;99.90;;;;;;4931940;28;20102;-79
2024/02/10 06:40:07;;;;;;;2.90;1.60;;;8.20;99.90;;;;;;4931740;28;20654;-78
2024/02/10 06:42:36;;;;;;;3.85;1.65;;;8.20;99.90;;;;;;4930099;29;20046;-78
2024/02/10 06:45:11;;;;;;;4.60;2.33;;;8.20;99.90;;;;;;4928481;28;20032;-78
2024/02/10 06:47:36;;;;;;;7.13;3.38;;;8.20;99.90;;;;;;4929814;28;20035;-78
2024/02/10 06:50:03;;;;;;;5.88;2.95;;;8.30;99.90;;;;;;4929686;29;20429;-78
2024/02/10 06:52:36;;;;;;;5.03;2.72;;;8.30;99.90;;;;;;4928525;28;20036;-78
2024/02/10 06:55:07;;;;;;;6.30;3.17;;;8.30;99.90;;;;;;4928710;29;20138;-78
2024/02/10 06:57:34;;;;;;;6.90;4.18;;;8.30;99.90;;;;;;4926663;28;20047;-78
2024/02/10 07:00:05;;;;;;;7.47;4.57;;;8.20;99.90;;;;;;4929418;29;20596;-78
2024/02/10 07:02:31;;;;;;;7.00;4.78;;;8.10;99.90;;;;;;4928041;29;20043;-78
2024/02/10 07:04:56;;;;;;;7.57;3.63;;;8.00;99.90;;;;;;4928307;29;20039;-78
2024/02/10 07:07:24;;;;;;;6.18;3.67;;;8.00;99.90;;;;;;4928546;28;20038;-78
2024/02/10 07:09:50;;;;;;;5.40;3.03;;;8.10;99.90;;;;;;4929678;28;20043;-78
2024/02/10 07:12:16;;;;;;;5.47;3.20;;;8.10;99.90;;;;;;4927411;29;20039;-78
2024/02/10 07:14:45;;;;;;;5.10;2.80;;;8.20;99.90;;;;;;4928872;29;20539;-78
2024/02/10 07:17:12;;;;;;;5.65;3.20;;;8.20;99.90;;;;;;4929869;29;20016;-78
2024/02/10 07:19:42;;;;;;;5.20;2.92;;;8.30;99.90;;;;;;4928525;29;20142;-78
2024/02/10 07:22:09;;;;;;;4.47;2.83;;;8.20;99.90;;;;;;4929277;29;20509;-77
2024/02/10 07:24:36;;;;;;;4.38;2.25;;;8.20;99.90;;;;;;4929428;29;20114;-78
2024/02/10 07:27:02;;;;;;;4.18;2.08;;;8.20;99.90;;;;;;4928225;29;20019;-78
2024/02/10 07:29:28;;;;;;;4.30;2.15;;;8.30;99.90;;;;;;4927326;29;20595;-78
2024/02/10 07:31:55;;;;;;;3.60;1.95;;;8.40;99.90;;;;;;4928332;29;20035;-78
2024/02/10 07:34:22;;;;;;;3.42;1.70;;;8.30;99.90;;;;;;4927261;28;20047;-78
2024/02/10 07:36:55;;;;;;;6.47;2.00;;;8.30;99.90;;;;;;4927107;28;20401;-78
2024/02/10 07:39:24;;;;;;;3.28;1.50;;;8.30;99.90;;;;;;4934610;29;20065;-80
2024/02/10 07:41:50;;;;;;;3.40;1.95;;;8.30;99.90;;;;;;4928947;29;20101;-77
2024/02/10 07:44:16;;;;;;;3.40;1.67;;;8.30;99.90;;;;;;4925908;29;20098;-79
2024/02/10 07:46:41;;;;;;;3.65;2.08;;;8.30;99.90;;;;;;4924979;28;20134;-78
2024/02/10 07:49:07;;;;;;;4.03;2.10;;;8.30;99.90;;;;;;4929573;29;20772;-77
2024/02/10 07:51:33;;;;;;;4.00;2.13;;;8.30;99.90;;;;;;4926627;28;20039;-77
2024/02/10 07:53:59;;;;;;;6.05;2.22;;;8.40;99.90;;;;;;4928390;29;20042;-77
2024/02/10 07:56:28;;;;;;;4.55;2.38;;;8.40;99.90;;;;;;4923635;28;20058;-77
2024/02/10 07:58:59;;;;;;;4.78;2.55;;;8.40;99.90;;;;;;4924114;29;20036;-78
2024/02/10 08:01:28;;;;;;;4.40;2.58;;;8.30;99.90;;;;;;4925833;28;20480;-78
2024/02/10 08:03:54;;;;;;;4.20;2.33;;;8.40;99.90;;;;;;4926931;28;20758;-77
2024/02/10 08:06:26;;;;;;;3.95;1.95;;;8.40;99.90;;;;;;4928619;28;20552;-78
2024/02/10 08:08:56;;;;;;;4.43;2.38;;;8.40;99.90;;;;;;4927280;29;20792;-78
2024/02/10 08:11:22;;;;;;;3.95;1.90;;;8.50;99.90;;;;;;4926683;28;20062;-78
2024/02/10 08:13:51;;;;;;;3.65;1.85;;;8.50;99.90;;;;;;4925153;29;20138;-78
2024/02/10 08:16:40;;;;;;;4.00;2.08;;;8.50;99.90;;;;;;4926482;29;20078;-78
2024/02/10 08:19:05;;;;;;;6.60;2.75;;;8.50;99.90;;;;;;4926724;29;20481;-78
2024/02/10 08:21:32;;;;;;;4.30;2.35;;;8.50;99.90;;;;;;4927715;28;20042;-78
2024/02/10 08:23:58;;;;;;;4.95;2.45;;;8.60;99.90;;;;;;4924908;28;20344;-77
2024/02/10 08:26:27;;;;;;;5.07;2.83;;;8.60;99.90;;;;;;4928307;29;20104;-77
2024/02/10 08:28:58;;;;;;;5.70;2.90;;;8.60;99.90;;;;;;4929155;28;20086;-76
2024/02/10 08:31:24;;;;;;;7.95;4.13;;;8.60;99.90;;;;;;4928752;29;20035;-78
2024/02/10 08:33:50;;;;;;;9.82;4.57;;;8.60;99.90;;;;;;4928363;28;20047;-78
2024/02/10 08:36:19;;;;;;;9.35;5.22;;;8.60;99.90;;;;;;4929834;28;20489;-76
2024/02/10 08:38:46;;;;;;;10.82;6.03;;;8.60;99.90;;;;;;4926519;28;20837;-77
2024/02/10 08:41:13;;;;;;;8.00;4.72;;;8.60;99.90;;;;;;4924684;28;20035;-75
2024/02/10 08:43:47;;;;;;;7.57;4.85;;;8.60;99.90;;;;;;4927596;28;20142;-77
2024/02/10 08:46:16;;;;;;;6.78;4.10;;;8.60;99.90;;;;;;4925550;29;20031;-76
2024/02/10 08:48:42;;;;;;;7.30;4.60;;;8.60;99.90;;;;;;4925602;28;20042;-76
2024/02/10 08:51:12;;;;;;;7.55;4.50;;;8.60;99.90;;;;;;4926730;29;20069;-76
2024/02/10 08:53:46;;;;;;;19.08;6.57;;;8.50;99.90;;;;;;4926898;28;20046;-76
2024/02/10 08:56:11;;;;;;;6.32;4.38;;;8.40;99.90;;;;;;4924993;29;20031;-77
2024/02/10 08:58:39;;;;;;;7.25;4.70;;;8.50;99.90;;;;;;4926245;28;20516;-77
2024/02/10 09:01:06;;;;;;;7.60;5.40;;;8.50;99.90;;;;;;4924211;28;20184;-77
2024/02/10 09:03:33;;;;;;;10.52;5.47;;;8.50;99.90;;;;;;4928973;28;20176;-76
2024/02/10 09:05:58;;;;;;;7.95;4.68;;;8.40;99.90;;;;;;4929923;29;20674;-76
2024/02/10 09:08:24;;;;;;;7.95;4.43;;;8.50;99.90;;;;;;4928617;29;20093;-76
2024/02/10 09:10:49;;;;;;;7.32;5.25;;;8.60;99.90;;;;;;4930131;29;20102;-76
2024/02/10 09:13:19;;;;;;;9.90;5.97;;;8.70;99.90;;;;;;4927233;28;20605;-76
2024/02/10 09:15:44;;;;;;;8.48;4.82;;;8.60;99.90;;;;;;4929922;28;20557;-75
2024/02/10 09:18:11;;;;;;;7.13;4.70;;;8.70;99.90;;;;;;4931424;29;20035;-76
2024/02/10 09:20:37;;;;;;;7.65;5.20;;;8.70;99.90;;;;;;4928097;29;20031;-74
2024/02/10 09:23:03;;;;;;;8.60;5.63;;;8.70;99.90;;;;;;4927322;28;20042;-77
2024/02/10 09:25:29;;;;;;;11.10;5.57;;;8.70;99.90;;;;;;4934159;29;20397;-75
2024/02/10 09:27:59;;;;;;;11.65;4.57;;;8.70;99.90;;;;;;4935816;28;20114;-75
2024/02/10 09:30:25;;;;;;;9.63;6.50;;;8.70;99.90;;;;;;4933879;29;20031;-78
2024/02/10 09:32:51;;;;;;;8.02;5.38;;;8.70;99.90;;;;;;4935101;29;20038;-78
2024/02/10 09:35:22;;;;;;;11.52;6.32;;;8.70;99.90;;;;;;4931563;29;20088;-78
2024/02/10 09:37:49;;;;;;;80.97;11.43;;;8.70;99.90;;;;;;4934999;28;20110;-77
2024/02/10 09:40:15;;;;;;;33.88;8.73;;;8.70;99.90;;;;;;4934424;29;20563;-78
2024/02/10 09:42:49;;;;;;;8.80;5.97;;;8.60;99.90;;;;;;4933391;29;20039;-78
2024/02/10 09:45:16;;;;;;;9.52;7.22;;;8.60;99.90;;;;;;4933992;29;20043;-77
2024/02/10 09:47:45;;;;;;;9.25;5.05;;;8.70;99.90;;;;;;4933179;29;20074;-78
2024/02/10 09:50:14;;;;;;;7.22;4.45;;;8.60;99.90;;;;;;4931978;29;20043;-78
2024/02/10 09:52:47;;;;;;;5.68;3.78;;;8.70;99.90;;;;;;4935049;29;20118;-78
2024/02/10 09:55:16;;;;;;;6.20;3.80;;;8.80;99.90;;;;;;4931353;28;20077;-78
2024/02/10 09:57:46;;;;;;;5.20;3.05;;;8.80;99.90;;;;;;4932939;28;20503;-78
2024/02/10 10:00:16;;;;;;;4.88;3.10;;;8.80;99.90;;;;;;4932350;29;20034;-78
2024/02/10 10:02:49;;;;;;;5.85;3.47;;;8.80;99.90;;;;;;4932707;29;20062;-78
2024/02/10 10:05:18;;;;;;;8.65;3.97;;;8.90;99.90;;;;;;4933427;29;20038;-75
2024/02/10 10:07:52;;;;;;;6.57;3.38;;;8.90;99.90;;;;;;4933648;28;20516;-78
2024/02/10 10:10:19;;;;;;;5.47;3.42;;;8.80;99.90;;;;;;4934075;29;20031;-78
2024/02/10 10:12:45;;;;;;;7.63;4.10;;;8.80;99.90;;;;;;4933422;29;20024;-77
2024/02/10 10:15:11;;;;;;;5.00;3.42;;;8.80;99.90;;;;;;4932034;28;20130;-78
2024/02/10 10:17:37;;;;;;;6.00;3.92;;;8.80;99.90;;;;;;4931785;29;20579;-78
2024/02/10 10:20:04;;;;;;;5.10;3.53;;;8.90;99.90;;;;;;4932513;28;20039;-78
2024/02/10 10:22:36;;;;;;;5.47;3.33;;;9.00;99.90;;;;;;4934505;29;20031;-77
2024/02/10 10:25:06;;;;;;;6.15;4.15;;;9.00;99.90;;;;;;4936706;28;20050;-77
2024/02/10 10:27:32;;;;;;;6.43;4.38;;;9.00;99.90;;;;;;4937956;29;20105;-77
2024/02/10 10:29:58;;;;;;;7.15;4.15;;;9.00;99.90;;;;;;4931675;29;20170;-77
2024/02/10 10:32:30;;;;;;;5.93;3.97;;;9.00;99.90;;;;;;4929826;28;20035;-77
2024/02/10 10:34:59;;;;;;;6.03;4.32;;;9.10;99.90;;;;;;4932511;29;21317;-76
2024/02/10 10:37:25;;;;;;;6.88;4.68;;;9.10;99.90;;;;;;4925753;29;20047;-78
2024/02/10 10:39:52;;;;;;;5.63;3.90;;;9.10;99.90;;;;;;4925732;29;20033;-78
2024/02/10 10:42:20;;;;;;;8.93;5.88;;;9.10;99.90;;;;;;4926519;28;20058;-78
2024/02/10 10:44:50;;;;;;;9.13;5.80;;;9.10;99.90;;;;;;4925456;29;20035;-78
2024/02/10 10:47:22;;;;;;;8.18;4.82;;;9.10;99.90;;;;;;4926345;29;20062;-78
2024/02/10 10:49:51;;;;;;;6.70;4.13;;;9.10;99.90;;;;;;4928422;29;20054;-77
2024/02/10 10:52:21;;;;;;;7.28;4.05;;;9.20;99.90;;;;;;4924336;28;20038;-77
2024/02/10 10:54:50;;;;;;;17.70;9.82;;;9.20;99.90;;;;;;4929955;28;20043;-76
2024/02/10 10:57:23;;;;;;;13.68;7.13;;;9.30;99.90;;;;;;4928284;28;20039;-76
2024/02/10 10:59:59;;;;;;;14.32;7.45;;;9.30;99.90;;;;;;4932097;28;20562;-75
2024/02/10 11:02:28;;;;;;;11.82;8.55;;;9.20;99.90;;;;;;4933487;29;20493;-76
2024/02/10 11:05:09;;;;;;;22.63;14.02;;;9.20;99.90;;;;;;4935831;28;20118;-78
2024/02/10 11:07:36;;;;;;;9.35;6.03;;;9.20;99.90;;;;;;4932044;29;20062;-76
2024/02/10 11:10:03;;;;;;;8.27;5.38;;;9.10;99.90;;;;;;4930513;28;20485;-78
2024/02/10 11:12:35;;;;;;;9.10;4.80;;;9.00;99.90;;;;;;4928445;28;20218;-76
2024/02/10 11:15:01;;;;;;;8.25;4.72;;;9.10;99.90;;;;;;4928550;28;20054;-76
2024/02/10 11:17:29;;;;;;;7.65;5.38;;;9.10;99.90;;;;;;4932077;28;20322;-74
2024/02/10 11:20:04;;;;;;;8.20;6.30;;;9.20;99.90;;;;;;4933952;28;20039;-75
2024/02/10 11:22:37;;;;;;;16.85;9.52;;;9.40;99.90;;;;;;4924929;28;20031;-76
2024/02/10 11:25:10;;;;;;;12.50;8.23;;;9.30;99.90;;;;;;4925565;28;20993;-76
2024/02/10 11:27:37;;;;;;;12.30;9.07;;;9.40;99.90;;;;;;4925833;28;20055;-76
2024/02/10 11:30:03;;;;;;;10.50;7.50;;;9.50;99.90;;;;;;4927128;29;20059;-76
2024/02/10 11:32:29;;;;;;;9.40;7.07;;;9.40;99.90;;;;;;4926702;29;20044;-76
2024/02/10 11:34:56;;;;;;;7.07;5.10;;;9.50;99.90;;;;;;4925129;29;20137;-75
2024/02/10 11:37:25;;;;;;;7.80;5.15;;;9.20;99.90;;;;;;4929152;28;20097;-77
2024/02/10 11:39:54;;;;;;;5.13;3.30;;;9.30;99.90;;;;;;4928066;29;20673;-76
2024/02/10 11:42:20;;;;;;;6.75;3.72;;;9.30;99.90;;;;;;4926679;28;20043;-76
2024/02/10 11:44:46;;;;;;;6.60;3.85;;;9.30;99.90;;;;;;4929902;28;20699;-76
2024/02/10 11:47:12;;;;;;;5.95;3.97;;;9.30;99.90;;;;;;4928899;28;20047;-76
2024/02/10 11:49:39;;;;;;;7.97;5.45;;;9.30;99.90;;;;;;4927843;29;20035;-76
2024/02/10 11:52:08;;;;;;;8.30;5.57;;;9.30;99.90;;;;;;4929660;28;20039;-76
2024/02/10 11:54:36;;;;;;;8.63;5.22;;;9.20;99.90;;;;;;4928520;28;20556;-76
2024/02/10 11:57:04;;;;;;;7.90;4.97;;;9.30;99.90;;;;;;4927831;28;20039;-76
2024/02/10 11:59:34;;;;;;;7.88;4.43;;;9.20;99.90;;;;;;4929456;29;20067;-77
2024/02/10 12:02:01;;;;;;;6.18;4.00;;;9.10;99.90;;;;;;4928038;28;20484;-76
2024/02/10 12:04:28;;;;;;;7.30;4.55;;;9.10;99.90;;;;;;4928045;29;20059;-76
2024/02/10 12:06:54;;;;;;;6.95;4.28;;;9.20;99.90;;;;;;4929451;28;20042;-77
2024/02/10 12:09:20;;;;;;;8.52;5.30;;;9.20;99.90;;;;;;4928632;29;20047;-77
2024/02/10 12:11:46;;;;;;;6.47;4.32;;;9.20;99.90;;;;;;4927139;29;20039;-76
2024/02/10 12:14:14;;;;;;;6.60;5.20;;;9.30;99.90;;;;;;4929700;28;20051;-76
2024/02/10 12:16:44;;;;;;;8.13;5.80;;;9.20;99.90;;;;;;4929392;29;20082;-76
2024/02/10 12:19:11;;;;;;;10.85;6.07;;;9.20;99.90;;;;;;4928415;29;20065;-76
2024/02/10 12:21:41;;;;;;;8.68;5.25;;;9.20;99.90;;;;;;4927587;28;20050;-77
2024/02/10 12:24:10;;;;;;;7.30;4.78;;;9.10;99.90;;;;;;4928911;29;20476;-76
2024/02/10 12:26:37;;;;;;;7.85;5.30;;;9.10;99.90;;;;;;4928388;28;20509;-75
2024/02/10 12:29:04;;;;;;;8.40;5.20;;;9.10;99.90;;;;;;4927348;28;20071;-75
2024/02/10 12:31:31;;;;;;;7.88;5.07;;;9.10;99.90;;;;;;4929177;29;20105;-75
2024/02/10 12:33:57;;;;;;;7.60;5.03;;;9.10;99.90;;;;;;4927836;28;20046;-75
2024/02/10 12:36:24;;;;;;;8.43;4.93;;;9.20;99.90;;;;;;4928253;28;20492;-75
2024/02/10 12:38:52;;;;;;;7.53;4.78;;;9.20;99.90;;;;;;4930619;29;20066;-76
2024/02/10 12:41:18;;;;;;;6.95;4.82;;;9.30;99.90;;;;;;4932034;29;20674;-75
2024/02/10 12:43:44;;;;;;;7.22;4.88;;;9.30;99.90;;;;;;4931163;28;20037;-75
2024/02/10 12:46:12;;;;;;;8.07;5.05;;;9.30;99.90;;;;;;4930021;29;20039;-75
2024/02/10 12:48:38;;;;;;;6.43;3.95;;;9.30;99.90;;;;;;4933242;28;20042;-75
2024/02/10 12:51:04;;;;;;;6.78;4.35;;;9.30;99.90;;;;;;4930914;29;20031;-75
2024/02/10 12:53:30;;;;;;;5.75;4.22;;;9.20;99.90;;;;;;4930871;28;20047;-76
2024/02/10 12:55:56;;;;;;;6.07;3.70;;;9.20;99.90;;;;;;4932428;29;20039;-75
2024/02/10 12:58:21;;;;;;;6.40;4.15;;;9.20;99.90;;;;;;4931278;28;20035;-75